Time;durP1;ratioP1;P1;durP2;ratioP2;P2;SDS_P1;SDS_P2;PMS_P1;PMS_P2;Temp;Humidity;BMP_temperature;BMP_pressure;BME280_temperature;BME280_humidity;BME280_pressure;Samples;Min_cycle;Max_cycle;Signal;HPM_P1;HPM_P2
2023/03/02 00:01:13;;;;;;;22.85;16.45;;;;;;;0.03;84.05;102102.44;6096681;23;20180;-72
2023/03/02 00:03:53;;;;;;;25.77;16.95;;;;;;;-0.07;83.81;102101.34;6097322;23;20185;-72
2023/03/02 00:06:29;;;;;;;27.67;13.05;;;;;;;-0.20;84.91;102105.81;6097649;23;20176;-71
2023/03/02 00:09:07;;;;;;;29.40;16.92;;;;;;;-0.14;84.68;102102.72;6098651;23;20158;-71
2023/03/02 00:11:47;;;;;;;31.60;16.23;;;;;;;-0.25;84.92;102107.91;6096973;23;20233;-73
2023/03/02 00:14:19;;;;;;;27.17;17.85;;;;;;;-0.19;85.12;102103.03;6096562;23;20536;-72
2023/03/02 00:16:53;;;;;;;26.90;19.42;;;;;;;-0.13;84.56;102102.63;6072711;23;20657;-73
2023/03/02 00:19:28;;;;;;;32.67;21.20;;;;;;;0.03;84.40;102102.44;6096090;23;20639;-71
2023/03/02 00:22:11;;;;;;;38.45;21.02;;;;;;;-0.03;84.39;102113.47;6096731;23;20175;-72
2023/03/02 00:25:04;;;;;;;34.90;20.17;;;;;;;-0.14;84.60;102106.22;6097061;23;20178;-72
2023/03/02 00:27:46;;;;;;;33.25;21.33;;;;;;;-0.20;85.31;102106.66;6098082;23;20201;-72
2023/03/02 00:30:26;;;;;;;38.35;22.20;;;;;;;-0.17;85.27;102105.59;6096549;23;20182;-71
2023/03/02 00:33:04;;;;;;;29.55;20.15;;;;;;;-0.18;85.39;102098.56;6071451;23;20633;-73
2023/03/02 00:35:43;;;;;;;29.02;16.95;;;;;;;-0.13;85.26;102101.75;6096430;23;20225;-73
2023/03/02 00:41:13;;;;;;;21.88;16.13;;;;;;;-0.31;86.54;102105.66;6072932;23;20555;-74
2023/03/02 00:43:51;;;;;;;26.08;16.05;;;;;;;-0.30;86.38;102094.94;6096579;23;20178;-73
2023/03/02 00:46:25;;;;;;;23.27;14.88;;;;;;;-0.32;86.76;102098.63;6095776;23;20174;-73
2023/03/02 00:48:58;;;;;;;25.38;16.65;;;;;;;-0.35;86.67;102096.19;6096499;23;20177;-71
2023/03/02 00:51:35;;;;;;;24.98;16.17;;;;;;;-0.44;86.74;102103.81;6072851;23;20665;-72
2023/03/02 00:54:09;;;;;;;22.38;15.77;;;;;;;-0.35;86.89;102093.53;6075726;23;20170;-74
2023/03/02 00:56:44;;;;;;;20.20;15.20;;;;;;;-0.43;87.15;102094.03;6103179;23;20194;-72
2023/03/02 00:59:33;;;;;;;16.42;12.60;;;;;;;-0.50;87.47;102093.59;6058171;23;20170;-73
2023/03/02 01:05:18;;;;;;;20.52;12.98;;;;;;;-0.47;88.25;102093.38;6097250;23;20690;-72
2023/03/02 01:07:53;;;;;;;21.08;14.65;;;;;;;-0.44;88.73;102097.66;6073638;23;20197;-72
2023/03/02 01:10:40;;;;;;;20.85;14.30;;;;;;;-0.48;88.77;102094.34;6096738;23;20203;-72
2023/03/02 01:13:22;;;;;;;20.48;12.60;;;;;;;-0.44;88.70;102098.50;6098868;23;20175;-73
2023/03/02 01:16:46;;;;;;;21.55;12.40;;;;;;;-0.55;89.16;102093.06;6098327;23;20663;-72
2023/03/02 01:19:28;;;;;;;21.60;12.25;;;;;;;-0.52;90.01;102090.19;6072775;23;20504;-70
2023/03/02 01:22:19;;;;;;;19.95;15.38;;;;;;;-0.41;90.11;102080.63;6096840;23;20228;-71
2023/03/02 01:25:01;;;;;;;16.42;10.60;;;;;;;-0.52;90.20;102076.03;6098404;23;20262;-72
2023/03/02 01:28:02;;;;;;;17.02;11.02;;;;;;;-0.51;90.66;102070.63;6098817;23;20205;-72
2023/03/02 01:30:37;;;;;;;19.80;10.40;;;;;;;-0.46;90.69;102068.50;6073497;23;20182;-72
2023/03/02 01:33:13;;;;;;;17.65;12.40;;;;;;;-0.41;91.44;102070.00;6096882;23;20182;-73
2023/03/02 01:36:03;;;;;;;17.10;10.93;;;;;;;-0.38;91.51;102060.00;6097133;23;20213;-72
2023/03/02 01:38:53;;;;;;;18.13;9.85;;;;;;;-0.29;91.90;102069.19;6100064;23;20528;-74
2023/03/02 01:41:45;;;;;;;13.98;9.88;;;;;;;-0.20;91.84;102068.56;6100944;23;20178;-71
2023/03/02 01:44:45;;;;;;;14.70;10.55;;;;;;;-0.29;92.21;102062.03;6099530;23;20225;-72
2023/03/02 01:47:27;;;;;;;16.95;10.50;;;;;;;-0.25;92.39;102054.72;6102883;23;20194;-71
2023/03/02 01:50:21;;;;;;;17.90;10.18;;;;;;;-0.30;92.60;102056.84;6104737;23;20194;-72
2023/03/02 01:53:10;;;;;;;14.52;10.63;;;;;;;-0.44;92.78;102049.78;6105525;23;20177;-71
2023/03/02 01:55:58;;;;;;;21.20;10.85;;;;;;;-0.56;93.51;102055.91;6102567;23;20281;-73
2023/03/02 01:58:44;;;;;;;15.00;11.57;;;;;;;-0.51;93.80;102048.50;6102200;23;20241;-72
2023/03/02 02:01:27;;;;;;;17.90;11.35;;;;;;;-0.62;94.57;102046.53;6103423;23;20169;-71
2023/03/02 02:04:09;;;;;;;16.92;12.38;;;;;;;-0.46;95.32;102041.91;6099179;23;20607;-72
2023/03/02 02:06:57;;;;;;;18.02;11.40;;;;;;;-0.51;95.18;102036.06;6103619;23;20225;-72
2023/03/02 02:10:01;;;;;;;18.42;11.27;;;;;;;-0.32;94.74;102032.13;6078531;23;20181;-72
2023/03/02 02:13:00;;;;;;;14.32;10.32;;;;;;;-0.34;94.88;102032.25;6100503;23;20178;-71
2023/03/02 02:15:50;;;;;;;18.23;12.13;;;;;;;-0.35;94.20;102037.69;6095799;23;20174;-72
2023/03/02 02:18:55;;;;;;;16.15;10.82;;;;;;;-0.48;94.25;102032.31;6095847;23;20189;-72
2023/03/02 02:21:52;;;;;;;23.02;12.27;;;;;;;-0.60;95.05;102031.34;6096579;23;20174;-71
2023/03/02 02:25:18;;;;;;;;;;;;;;;;;;;;;
2023/03/02 02:28:02;;;;;;;15.20;9.32;;;;;;;-0.61;96.00;102034.09;6045347;23;20177;-80
2023/03/02 02:30:32;;;;;;;16.23;10.18;;;;;;;-0.56;95.86;102029.34;6107707;23;20159;-81
2023/03/02 02:33:02;;;;;;;14.00;10.25;;;;;;;-0.63;96.51;102031.53;6103996;23;20194;-81
2023/03/02 02:35:37;;;;;;;19.73;13.45;;;;;;;-0.66;96.27;102031.75;6077698;23;20186;-80
2023/03/02 02:38:10;;;;;;;16.45;10.75;;;;;;;-0.64;96.52;102032.53;6078642;23;20178;-80
2023/03/02 02:40:46;;;;;;;20.15;10.55;;;;;;;-0.56;96.84;102037.31;6078266;23;20170;-80
2023/03/02 02:43:22;;;;;;;12.10;9.57;;;;;;;-0.63;96.91;102036.03;6080264;23;20266;-80
2023/03/02 02:45:55;;;;;;;22.20;13.52;;;;;;;-0.70;96.71;102030.25;6079492;23;20533;-79
2023/03/02 02:48:29;;;;;;;15.63;11.63;;;;;;;-0.77;97.48;102026.28;6107414;23;20160;-80
2023/03/02 02:51:01;;;;;;;19.95;11.30;;;;;;;-0.81;97.76;102022.13;6079407;23;20190;-80
2023/03/02 02:53:41;;;;;;;22.85;12.88;;;;;;;-0.90;98.84;102026.25;6106424;23;20690;-79
2023/03/02 02:56:12;;;;;;;22.35;11.25;;;;;;;-0.78;99.29;102019.28;6084020;23;20190;-80
2023/03/02 02:58:47;;;;;;;20.17;12.18;;;;;;;-0.65;99.42;102019.31;6095266;23;20181;-80
2023/03/02 03:01:18;;;;;;;19.23;11.52;;;;;;;-0.92;99.78;102028.16;6097006;23;20155;-79
2023/03/02 03:03:53;;;;;;;15.30;11.57;;;;;;;-0.92;100.00;102022.03;6094983;23;20190;-80
2023/03/02 03:06:27;;;;;;;24.48;12.40;;;;;;;-0.89;100.00;102027.13;6110322;23;20151;-81
2023/03/02 03:09:01;;;;;;;18.77;12.90;;;;;;;-0.94;100.00;102023.91;6108892;23;20154;-80
2023/03/02 03:11:45;;;;;;;18.17;11.35;;;;;;;-0.91;100.00;102029.88;6081191;23;20245;-80
2023/03/02 03:14:18;;;;;;;22.63;12.85;;;;;;;-0.90;100.00;102025.41;6108825;23;20151;-80
2023/03/02 03:16:51;;;;;;;17.70;11.48;;;;;;;-0.84;100.00;102025.00;6089819;23;20249;-80
2023/03/02 03:19:23;;;;;;;20.98;12.13;;;;;;;-0.75;100.00;102021.75;6082874;23;20597;-79
2023/03/02 03:21:55;;;;;;;19.15;11.93;;;;;;;-0.72;100.00;102021.53;6084713;23;20204;-80
2023/03/02 03:24:27;;;;;;;19.52;11.70;;;;;;;-0.59;100.00;102016.25;6082585;23;20171;-81
2023/03/02 03:26:58;;;;;;;18.00;12.32;;;;;;;-0.68;99.23;102012.41;6077972;23;20166;-81
2023/03/02 03:29:30;;;;;;;16.27;11.60;;;;;;;-0.69;99.98;102024.00;6078914;23;20174;-80
2023/03/02 03:32:02;;;;;;;17.38;11.57;;;;;;;-0.64;99.78;102021.88;6103656;23;20186;-80
2023/03/02 03:34:39;;;;;;;16.83;11.48;;;;;;;-0.54;99.63;102022.97;6077791;23;20171;-79
2023/03/02 03:37:16;;;;;;;21.10;14.05;;;;;;;-0.65;99.61;102024.63;6077756;23;20238;-79
2023/03/02 03:39:46;;;;;;;21.88;12.52;;;;;;;-0.83;100.00;102026.72;6077488;23;20166;-79
2023/03/02 03:42:17;;;;;;;16.05;11.50;;;;;;;-0.78;100.00;102021.94;6077546;23;20217;-81
2023/03/02 03:44:48;;;;;;;20.20;11.88;;;;;;;-0.93;100.00;102021.16;6077642;23;20213;-80
2023/03/02 03:47:18;;;;;;;18.60;11.18;;;;;;;-1.20;100.00;102017.63;6106587;23;20157;-82
2023/03/02 03:49:48;;;;;;;21.00;12.63;;;;;;;-1.25;100.00;102024.19;6084413;23;20178;-80
2023/03/02 03:52:29;;;;;;;18.67;12.27;;;;;;;-1.06;100.00;102020.25;6097752;23;20186;-80
2023/03/02 03:55:10;;;;;;;20.77;11.35;;;;;;;-1.04;100.00;102021.00;6094780;23;20171;-79
2023/03/02 03:57:39;;;;;;;18.77;12.38;;;;;;;-0.99;100.00;102026.88;6104027;23;20186;-81
2023/03/02 04:00:15;;;;;;;19.75;12.93;;;;;;;-0.88;100.00;102024.38;6104731;23;20162;-80
2023/03/02 04:02:54;;;;;;;15.65;12.23;;;;;;;-0.97;100.00;102013.50;6080549;23;20199;-81
2023/03/02 04:05:24;;;;;;;25.30;12.23;;;;;;;-0.94;100.00;102010.63;6081876;23;20170;-81
2023/03/02 04:08:00;;;;;;;26.63;12.38;;;;;;;-0.91;100.00;102008.59;6109006;23;20150;-81
2023/03/02 04:10:31;;;;;;;17.15;11.63;;;;;;;-0.94;100.00;102015.94;6094007;23;20162;-80
2023/03/02 04:13:02;;;;;;;22.20;14.15;;;;;;;-0.95;100.00;102022.19;6092153;23;20607;-79
2023/03/02 04:15:33;;;;;;;24.90;16.33;;;;;;;-1.15;100.00;102007.56;6093133;23;20166;-80
2023/03/02 04:18:03;;;;;;;18.63;14.65;;;;;;;-1.13;100.00;102007.47;6083793;23;20191;-80
2023/03/02 04:20:33;;;;;;;24.75;15.05;;;;;;;-1.14;100.00;102000.44;6081805;23;20187;-80
2023/03/02 04:23:03;;;;;;;21.90;14.82;;;;;;;-1.20;100.00;102008.81;6082399;23;20205;-80
2023/03/02 04:25:32;;;;;;;23.30;13.48;;;;;;;-1.25;100.00;102006.44;6107242;23;20198;-80
2023/03/02 04:28:59;;;;;;;22.02;13.82;;;;;;;-1.01;100.00;102004.84;6103967;23;20504;-80
2023/03/02 04:31:30;;;;;;;24.73;14.05;;;;;;;-1.24;100.00;102015.28;6106197;23;20624;-80
2023/03/02 04:34:02;;;;;;;22.88;14.23;;;;;;;-1.21;100.00;102018.56;6084629;23;20170;-79
2023/03/02 04:36:35;;;;;;;24.05;14.00;;;;;;;-1.26;100.00;102027.81;6087572;23;20166;-80
2023/03/02 04:39:08;;;;;;;30.45;16.45;;;;;;;-1.12;100.00;102030.44;6113995;23;20215;-80
2023/03/02 04:41:37;;;;;;;33.78;15.43;;;;;;;-1.03;100.00;102028.03;6091753;23;20190;-80
2023/03/02 04:44:07;;;;;;;26.00;15.60;;;;;;;-1.14;100.00;102037.63;6117079;23;20230;-80
2023/03/02 04:46:38;;;;;;;23.85;15.15;;;;;;;-1.08;100.00;102042.56;6113755;23;20158;-79
2023/03/02 04:49:08;;;;;;;28.58;16.73;;;;;;;-1.19;100.00;102039.72;6086573;23;20166;-80
2023/03/02 04:51:40;;;;;;;22.77;14.93;;;;;;;-1.29;100.00;102030.66;6114827;23;20170;-79
2023/03/02 04:54:16;;;;;;;27.00;15.70;;;;;;;-1.30;100.00;102032.44;6110973;23;20155;-79
2023/03/02 04:56:50;;;;;;;29.67;16.40;;;;;;;-1.43;100.00;102027.09;6108474;23;20154;-79
2023/03/02 04:59:24;;;;;;;23.48;15.65;;;;;;;-1.56;100.00;102026.16;6110370;23;20155;-80
2023/03/02 05:01:56;;;;;;;24.27;18.05;;;;;;;-1.47;100.00;102036.19;6111326;23;20197;-80
2023/03/02 05:04:27;;;;;;;27.17;17.98;;;;;;;-1.56;100.00;102025.31;6084117;23;20172;-80
2023/03/02 05:06:57;;;;;;;32.30;18.83;;;;;;;-1.64;100.00;102032.88;6110084;23;20392;-80
2023/03/02 05:09:29;;;;;;;33.30;18.00;;;;;;;-1.68;100.00;102020.75;6112464;23;20155;-81
2023/03/02 05:12:01;;;;;;;26.02;15.30;;;;;;;-1.52;100.00;102022.34;6113101;23;20212;-80
2023/03/02 05:14:33;;;;;;;27.98;16.83;;;;;;;-1.44;100.00;102020.06;6111423;23;20155;-79
2023/03/02 05:17:05;;;;;;;24.75;14.88;;;;;;;-1.57;100.00;102019.13;6112692;23;20194;-80
2023/03/02 05:19:35;;;;;;;27.27;15.65;;;;;;;-1.58;100.00;102014.78;6088068;23;20165;-79
2023/03/02 05:22:05;;;;;;;24.80;16.58;;;;;;;-1.71;100.00;102027.13;6116036;23;20196;-81
2023/03/02 05:24:36;;;;;;;31.73;16.02;;;;;;;-1.71;100.00;102023.59;6112943;23;20178;-80
2023/03/02 05:27:05;;;;;;;28.30;14.65;;;;;;;-1.77;100.00;102032.81;6114706;23;20154;-80
2023/03/02 05:29:35;;;;;;;29.27;17.75;;;;;;;-1.76;100.00;102023.91;6114664;23;20196;-80
2023/03/02 05:32:06;;;;;;;27.67;15.65;;;;;;;-1.89;100.00;102022.97;6087875;23;20182;-80
2023/03/02 05:34:42;;;;;;;26.40;14.55;;;;;;;-1.83;100.00;102027.88;6123904;23;20150;-80
2023/03/02 05:37:13;;;;;;;29.85;17.55;;;;;;;-1.87;100.00;102026.34;6124338;23;20149;-79
2023/03/02 05:39:45;;;;;;;30.23;15.73;;;;;;;-1.78;100.00;102023.13;6124301;23;20150;-80
2023/03/02 05:42:18;;;;;;;31.08;16.00;;;;;;;-1.82;100.00;102022.47;6124727;23;20173;-79
2023/03/02 05:44:51;;;;;;;37.13;17.67;;;;;;;-1.77;100.00;102016.88;6124954;23;20181;-80
2023/03/02 05:47:22;;;;;;;36.40;18.40;;;;;;;-1.85;100.00;102014.72;6124266;23;20162;-80
2023/03/02 05:49:53;;;;;;;33.60;18.98;;;;;;;-1.92;100.00;102020.47;6123967;23;20187;-79
2023/03/02 05:52:22;;;;;;;29.23;18.65;;;;;;;-2.02;100.00;102024.66;6099653;23;20178;-80
2023/03/02 05:54:54;;;;;;;48.05;19.40;;;;;;;-1.99;100.00;102021.81;6098140;23;20150;-80
2023/03/02 05:57:27;;;;;;;34.70;18.90;;;;;;;-2.22;100.00;102021.41;6098289;23;20190;-80
2023/03/02 06:00:01;;;;;;;31.02;15.35;;;;;;;-2.28;100.00;102019.16;6124726;23;20193;-80
2023/03/02 06:44:00;;;;;;;25.55;14.77;;;;;;;-2.22;100.00;102055.03;5748802;25;20224;-81
2023/03/02 06:46:30;;;;;;;40.40;19.58;;;;;;;-2.13;100.00;102056.28;5771235;24;20656;-82
2023/03/02 06:49:00;;;;;;;43.05;19.10;;;;;;;-2.07;100.00;102053.25;5873842;24;20192;-81
2023/03/02 06:51:29;;;;;;;34.05;17.35;;;;;;;-1.97;100.00;102054.41;6015294;23;20187;-81
2023/03/02 06:53:59;;;;;;;21.35;14.20;;;;;;;-1.98;100.00;102055.34;6018090;23;20208;-82
2023/03/02 07:03:48;;;;;;;24.90;15.48;;;;;;;-1.87;100.00;102056.41;6042921;23;20550;-80
2023/03/02 07:06:22;;;;;;;39.75;18.17;;;;;;;-1.80;100.00;102059.53;6083053;23;20185;-81
2023/03/02 07:59:46;;;;;;;49.30;20.35;;;;;;;-1.07;100.00;102054.91;6029980;23;20191;-79
2023/03/02 08:05:17;;;;;;;45.10;19.98;;;;;;;-0.67;100.00;102056.63;6029014;23;20231;-82
2023/03/02 08:07:47;;;;;;;51.97;20.27;;;;;;;-0.94;100.00;102061.97;6148065;23;20152;-81
2023/03/02 08:10:23;;;;;;;46.90;21.92;;;;;;;-0.88;100.00;102050.94;6151567;23;20149;-79
2023/03/02 08:12:52;;;;;;;40.72;17.88;;;;;;;-0.56;100.00;102054.13;6151712;23;20216;-80
2023/03/02 08:15:23;;;;;;;46.13;20.45;;;;;;;-0.41;100.00;102054.91;6144280;23;20230;-80
2023/03/02 08:17:55;;;;;;;49.85;19.92;;;;;;;-0.37;99.26;102060.84;6139509;23;20157;-80
2023/03/02 08:20:25;;;;;;;44.70;22.70;;;;;;;-0.16;98.22;102059.41;6138132;23;20169;-80
2023/03/02 08:22:54;;;;;;;37.00;22.17;;;;;;;-0.02;98.01;102054.00;6138671;23;20182;-81
2023/03/02 08:25:26;;;;;;;46.78;21.70;;;;;;;0.26;97.43;102050.25;6111783;23;20255;-80
2023/03/02 08:27:55;;;;;;;43.10;20.85;;;;;;;0.13;95.86;102050.28;6111864;23;20224;-80
2023/03/02 08:30:29;;;;;;;38.90;21.38;;;;;;;-0.21;96.05;102061.53;6143045;23;20142;-80
2023/03/02 08:33:30;;;;;;;42.33;21.10;;;;;;;-0.14;96.33;102060.13;6145025;23;20263;-79
2023/03/02 08:36:09;;;;;;;45.22;20.25;;;;;;;-0.12;96.75;102050.25;6141427;23;20158;-81
2023/03/02 08:39:45;;;;;;;43.42;19.83;;;;;;;-0.24;96.74;102053.78;6139735;23;20194;-82
2023/03/02 08:42:15;;;;;;;37.30;18.95;;;;;;;-0.21;97.31;102051.75;6122965;23;20202;-80
2023/03/02 08:44:44;;;;;;;38.72;21.40;;;;;;;-0.07;97.05;102048.13;6114172;23;20170;-80
2023/03/02 08:47:15;;;;;;;39.13;19.65;;;;;;;-0.06;96.35;102052.50;6112750;23;20166;-82
2023/03/02 09:02:32;;;;;;;34.40;19.05;;;;;;;0.14;96.28;102036.00;6104839;23;20169;-80
2023/03/02 09:05:14;;;;;;;36.80;20.10;;;;;;;0.17;96.05;102040.25;6090249;23;20217;-80
2023/03/02 09:07:46;;;;;;;37.60;18.58;;;;;;;0.31;96.42;102022.34;6113046;23;20154;-82
2023/03/02 09:10:24;;;;;;;32.92;18.25;;;;;;;0.27;95.15;102020.88;6110896;23;20145;-80
2023/03/02 09:12:53;;;;;;;30.65;17.27;;;;;;;0.51;95.26;102017.41;6112570;23;20220;-80
2023/03/02 09:15:26;;;;;;;32.13;18.70;;;;;;;0.56;94.86;102015.25;6087361;23;20198;-81
2023/03/02 09:18:03;;;;;;;34.80;18.75;;;;;;;0.72;94.73;102007.88;6113357;23;20151;-80
2023/03/02 09:20:48;;;;;;;33.85;18.05;;;;;;;0.78;92.12;102010.06;6113146;23;20179;-80
2023/03/02 09:43:45;;;;;;;25.17;13.05;;;;;;;1.04;90.33;102014.34;6141369;23;20269;-79
2023/03/02 09:49:59;;;;;;;28.55;16.33;;;;;;;1.42;90.83;102018.63;6144604;23;20194;-80
2023/03/02 09:53:06;;;;;;;35.03;16.70;;;;;;;1.60;88.68;102023.41;6145200;23;20191;-81
2023/03/02 09:56:03;;;;;;;26.35;15.43;;;;;;;1.38;89.40;102014.50;6142370;23;20178;-79
2023/03/02 09:59:14;;;;;;;34.55;15.88;;;;;;;1.73;88.83;102020.69;6143090;23;20178;-80
2023/03/02 10:02:29;;;;;;;27.63;14.43;;;;;;;1.75;88.21;102026.72;6143586;23;20185;-79
2023/03/02 10:05:24;;;;;;;27.90;18.23;;;;;;;1.69;88.28;102029.88;6151879;23;20191;-80
2023/03/02 10:08:49;;;;;;;29.77;15.93;;;;;;;1.57;88.35;102029.00;6146655;23;20183;-80
2023/03/02 10:11:53;;;;;;;27.88;14.65;;;;;;;1.63;89.05;102025.88;6140214;23;20163;-80
2023/03/02 10:15:00;;;;;;;24.25;15.93;;;;;;;1.56;88.15;102024.63;6143480;23;20147;-78
2023/03/02 10:22:15;;;;;;;65.55;44.33;;;;;;;1.91;87.81;102018.41;6143328;23;20577;-80
2023/03/02 10:24:57;;;;;;;25.60;14.63;;;;;;;1.98;88.00;102017.81;6143020;23;20152;-80
2023/03/02 10:27:38;;;;;;;25.77;15.18;;;;;;;2.04;86.04;102019.97;6143959;23;20207;-80
2023/03/02 10:30:19;;;;;;;19.90;14.68;;;;;;;2.01;87.08;102020.25;6146871;23;20151;-79
2023/03/02 10:32:51;;;;;;;25.17;16.08;;;;;;;1.95;86.78;102010.03;6148022;23;20246;-81
2023/03/02 10:40:27;;;;;;;24.05;15.65;;;;;;;2.58;84.43;102014.75;6132989;23;20201;-79
2023/03/02 10:42:58;;;;;;;22.00;13.95;;;;;;;2.53;84.48;102021.44;6149241;23;20210;-80
2023/03/02 10:48:58;;;;;;;22.45;13.77;;;;;;;1.98;85.76;102025.81;6131617;23;20180;-80
2023/03/02 10:51:39;;;;;;;27.17;12.75;;;;;;;1.92;87.28;102010.28;6084662;23;20199;-81
2023/03/02 10:54:20;;;;;;;21.35;13.45;;;;;;;2.22;86.29;102017.72;6107855;23;20167;-81
2023/03/02 11:19:01;;;;;;;53.72;21.40;;;;;;;2.68;83.95;101993.50;5935344;24;20199;-81
2023/03/02 11:21:38;;;;;;;52.67;24.50;;;;;;;2.88;83.60;101987.38;5971987;23;20169;-79
2023/03/02 11:24:12;;;;;;;30.80;18.27;;;;;;;2.79;84.65;101995.28;6035388;23;20166;-80
2023/03/02 11:26:49;;;;;;;21.98;13.45;;;;;;;3.06;83.75;101977.81;6036311;23;20157;-80
2023/03/02 11:29:31;;;;;;;24.88;15.00;;;;;;;3.48;81.53;101988.59;6060110;23;20208;-79
2023/03/02 11:32:08;;;;;;;20.50;12.88;;;;;;;3.33;81.38;101979.19;6059761;23;20193;-80
2023/03/02 11:34:46;;;;;;;23.48;12.52;;;;;;;3.50;80.74;101970.56;6036386;23;20289;-80
2023/03/02 11:37:20;;;;;;;20.95;12.85;;;;;;;3.26;81.00;101975.31;6061441;23;20148;-80
2023/03/02 11:40:14;;;;;;;23.58;13.85;;;;;;;3.21;81.59;101978.38;6064439;23;20181;-80
2023/03/02 11:42:45;;;;;;;24.50;14.27;;;;;;;3.57;81.25;101971.75;6063410;23;20296;-81
2023/03/02 11:45:26;;;;;;;27.17;13.65;;;;;;;3.35;81.60;101975.38;6062624;23;20209;-80
2023/03/02 11:48:07;;;;;;;21.20;13.43;;;;;;;3.34;81.14;101975.53;6063032;23;20187;-80
2023/03/02 11:50:50;;;;;;;26.00;16.13;;;;;;;3.48;80.73;101970.72;6094212;23;20168;-80
2023/03/02 11:53:24;;;;;;;23.45;13.27;;;;;;;3.83;80.20;101966.81;6122226;23;20187;-79
2023/03/02 11:55:54;;;;;;;16.98;12.98;;;;;;;4.10;78.53;101964.44;6122878;23;20136;-80
2023/03/02 11:58:26;;;;;;;20.35;12.82;;;;;;;4.00;78.58;101963.53;6120628;23;20184;-80
2023/03/02 12:00:56;;;;;;;21.42;13.60;;;;;;;3.96;79.64;101961.28;6121396;23;20160;-80
2023/03/02 12:03:40;;;;;;;20.95;12.95;;;;;;;3.90;78.50;101955.47;6122363;23;20195;-79
2023/03/02 12:06:38;;;;;;;21.27;13.68;;;;;;;3.75;79.63;101948.75;6122422;23;20140;-79
2023/03/02 12:09:29;;;;;;;22.45;11.88;;;;;;;3.53;79.84;101948.91;6124147;23;20149;-79
2023/03/02 12:12:32;;;;;;;18.40;11.55;;;;;;;3.47;80.77;101955.63;6119004;23;20191;-80
2023/03/02 12:15:22;;;;;;;20.85;12.00;;;;;;;3.53;80.56;101940.88;6090650;23;20176;-80
2023/03/02 12:17:59;;;;;;;19.85;12.10;;;;;;;3.45;80.98;101940.66;6090900;23;20178;-79
2023/03/02 12:20:40;;;;;;;21.63;13.48;;;;;;;3.59;81.46;101936.81;6114999;23;20192;-79
2023/03/02 12:23:32;;;;;;;18.55;11.70;;;;;;;3.59;80.84;101937.66;6110168;23;20191;-79
2023/03/02 12:26:24;;;;;;;20.60;12.68;;;;;;;3.46;81.27;101931.66;6088559;23;20376;-79
2023/03/02 12:29:02;;;;;;;19.02;13.05;;;;;;;3.84;80.04;101920.31;6112239;23;20176;-78
2023/03/02 12:31:45;;;;;;;18.13;12.75;;;;;;;3.69;80.65;101922.50;6115798;23;20154;-79
2023/03/02 12:34:33;;;;;;;18.98;12.20;;;;;;;4.03;79.50;101916.88;6115862;23;20156;-79
2023/03/02 12:37:16;;;;;;;17.38;12.20;;;;;;;4.04;79.73;101911.41;6117584;23;20148;-80
2023/03/02 12:40:31;;;;;;;20.63;10.88;;;;;;;4.11;78.45;101911.72;6090790;23;20187;-80
2023/03/02 12:43:36;;;;;;;18.95;11.18;;;;;;;4.14;78.26;101908.75;6088232;23;20195;-79
2023/03/02 12:50:00;;;;;;;17.40;11.55;;;;;;;4.10;79.25;101907.34;6118553;23;20179;-80
2023/03/02 12:52:57;;;;;;;18.23;12.85;;;;;;;4.24;78.19;101902.44;6118688;23;20183;-78
2023/03/02 12:57:39;;;;;;;15.88;12.98;;;;;;;4.19;78.79;101901.16;6063744;23;20186;-80
2023/03/02 13:36:48;;;;;;;25.55;21.73;;;;;;;4.55;76.75;101887.13;5910903;24;20202;-79
2023/03/02 13:39:23;;;;;;;19.45;12.90;;;;;;;4.84;76.19;101884.50;5962690;24;20640;-79
2023/03/02 13:41:57;;;;;;;21.10;15.32;;;;;;;4.67;76.15;101880.66;5980608;23;20209;-78
2023/03/02 13:44:29;;;;;;;22.73;13.55;;;;;;;4.70;76.36;101872.31;6040062;23;20158;-78
2023/03/02 13:46:59;;;;;;;19.40;13.77;;;;;;;4.61;76.39;101872.31;6041090;23;20165;-78
2023/03/02 13:49:31;;;;;;;17.77;11.98;;;;;;;4.61;76.36;101869.63;6095522;23;20239;-77
2023/03/02 13:52:04;;;;;;;18.95;14.35;;;;;;;4.31;77.25;101862.53;6100466;23;20184;-78
2023/03/02 13:54:38;;;;;;;17.00;11.82;;;;;;;4.47;76.90;101857.50;6076259;23;20170;-79
2023/03/02 13:57:15;;;;;;;20.90;13.50;;;;;;;4.44;77.72;101857.78;6104191;23;20159;-78
2023/03/02 13:59:45;;;;;;;16.25;11.50;;;;;;;4.48;77.72;101861.03;6103445;23;20152;-82
2023/03/02 14:02:23;;;;;;;20.23;12.02;;;;;;;4.66;76.71;101859.34;6102107;23;20274;-79
2023/03/02 14:04:52;;;;;;;14.30;10.52;;;;;;;4.94;76.13;101857.66;6105210;23;20211;-79
2023/03/02 14:07:24;;;;;;;16.63;12.10;;;;;;;4.50;77.02;101859.91;6105121;23;20180;-79
2023/03/02 14:09:54;;;;;;;19.52;11.02;;;;;;;4.32;77.82;101861.56;6092562;23;20154;-81
2023/03/02 14:12:31;;;;;;;13.07;11.18;;;;;;;4.49;77.79;101857.34;6121450;23;20167;-81
2023/03/02 14:15:07;;;;;;;15.80;11.60;;;;;;;4.26;77.79;101856.78;6107274;23;20242;-79
2023/03/02 14:17:39;;;;;;;14.60;10.00;;;;;;;4.30;77.93;101852.81;6108686;23;20160;-80
2023/03/02 14:20:16;;;;;;;12.68;9.35;;;;;;;4.24;78.12;101848.84;6111689;23;20180;-82
2023/03/02 14:22:46;;;;;;;15.48;11.75;;;;;;;4.42;78.18;101843.66;6116863;23;20172;-79
2023/03/02 14:25:23;;;;;;;11.65;9.45;;;;;;;4.08;78.85;101853.03;6114594;23;20167;-80
2023/03/02 14:28:30;;;;;;;11.05;9.45;;;;;;;4.00;79.66;101829.63;6120030;23;20156;-82
2023/03/02 14:31:27;;;;;;;10.90;7.95;;;;;;;3.92;80.39;101832.97;6118798;23;20156;-82
2023/03/02 14:34:09;;;;;;;13.52;9.43;;;;;;;3.97;79.94;101829.06;6112729;23;20186;-79
2023/03/02 14:36:41;;;;;;;14.57;10.65;;;;;;;3.81;80.71;101822.38;6108665;23;20148;-80
2023/03/02 14:39:21;;;;;;;12.88;9.95;;;;;;;3.77;80.87;101817.44;6084950;23;20490;-81
2023/03/02 14:41:53;;;;;;;13.05;9.75;;;;;;;3.58;81.43;101812.88;6106450;23;20218;-80
2023/03/02 14:44:31;;;;;;;17.15;11.60;;;;;;;3.56;82.33;101806.78;6110281;23;20262;-83
2023/03/02 14:47:08;;;;;;;14.98;9.43;;;;;;;3.64;81.89;101811.44;6088118;23;20170;-82
2023/03/02 14:49:39;;;;;;;13.70;9.38;;;;;;;3.30;82.40;101802.84;6087439;23;20633;-82
2023/03/02 14:52:14;;;;;;;9.77;8.77;;;;;;;2.94;84.36;101801.53;6082798;23;20189;-83
2023/03/02 14:54:54;;;;;;;9.02;8.07;;;;;;;2.75;85.26;101796.91;6083329;23;20149;-84
2023/03/02 14:57:27;;;;;;;11.75;9.43;;;;;;;2.89;85.64;101799.25;6081665;23;20214;-83
2023/03/02 14:59:59;;;;;;;14.10;10.15;;;;;;;2.99;85.13;101799.31;6054926;23;20252;-82
2023/03/02 15:02:32;;;;;;;10.65;8.30;;;;;;;2.95;85.16;101792.53;6090287;23;20176;-81
2023/03/02 15:05:01;;;;;;;10.20;9.02;;;;;;;3.11;84.84;101792.91;6068333;23;20196;-81
2023/03/02 15:07:35;;;;;;;10.32;7.90;;;;;;;3.02;84.98;101799.88;6068388;23;20172;-83
2023/03/02 15:10:07;;;;;;;12.38;8.43;;;;;;;2.93;84.95;101799.81;6080433;23;20176;-83
2023/03/02 15:12:37;;;;;;;7.10;6.40;;;;;;;2.81;85.43;101793.69;6050293;23;20192;-84
2023/03/02 15:15:57;;;;;;;10.80;6.80;;;;;;;2.71;86.70;101789.28;6072270;23;20908;-83
2023/03/02 15:18:27;;;;;;;8.63;6.10;;;;;;;2.75;86.07;101796.91;6053282;23;20615;-84
2023/03/02 15:20:57;;;;;;;9.27;6.32;;;;;;;2.32;87.86;101799.66;6081104;23;20201;-82
2023/03/02 15:23:27;;;;;;;15.75;7.25;;;;;;;2.13;89.50;101794.94;6078992;23;20245;-83
2023/03/02 15:26:00;;;;;;;15.55;7.75;;;;;;;2.19;89.63;101801.63;6080411;23;20626;-83
2023/03/02 15:55:53;;;;;;;12.30;7.90;;;;;;;2.02;91.72;101787.00;5671913;25;20197;-80
2023/03/02 16:15:40;;;;;;;11.32;7.80;;;;;;;1.67;94.41;101780.97;6043131;23;20182;-70
2023/03/02 16:18:13;;;;;;;14.82;9.18;;;;;;;1.76;93.93;101780.25;6062121;23;20193;-72
2023/03/02 16:20:45;;;;;;;12.52;8.13;;;;;;;1.72;93.82;101779.66;6038314;23;20161;-73
2023/03/02 16:23:17;;;;;;;9.70;7.57;;;;;;;1.52;94.45;101782.22;6037761;23;20224;-71
2023/03/02 16:25:48;;;;;;;11.40;8.75;;;;;;;1.53;94.83;101774.09;6014677;23;20234;-72
2023/03/02 16:28:18;;;;;;;8.90;7.32;;;;;;;1.54;95.26;101766.94;6029563;23;20194;-73
2023/03/02 16:30:50;;;;;;;12.15;8.23;;;;;;;1.40;95.82;101775.19;6040344;23;20272;-74